Time;durP1;ratioP1;P1;durP2;ratioP2;P2;SDS_P1;SDS_P2;PMS_P1;PMS_P2;Temp;Humidity;BMP_temperature;BMP_pressure;BME280_temperature;BME280_humidity;BME280_pressure;Samples;Min_cycle;Max_cycle;Signal;HPM_P1;HPM_P2
2022/12/05 00:01:30;;;;;;;37.90;19.90;;;4.00;99.90;;;;;;5008035;28;20233;-79
2022/12/05 00:03:58;;;;;;;32.97;19.63;;;4.00;99.90;;;;;;4992657;28;20100;-78
2022/12/05 00:06:27;;;;;;;35.17;20.20;;;4.10;99.90;;;;;;4993737;28;20107;-78
2022/12/05 00:08:53;;;;;;;35.95;19.45;;;4.10;99.90;;;;;;4992973;28;20058;-78
2022/12/05 00:11:25;;;;;;;35.97;19.52;;;4.30;99.90;;;;;;4993047;28;20389;-79
2022/12/05 00:13:53;;;;;;;33.65;18.85;;;5.20;99.90;;;;;;5000166;28;20103;-79
2022/12/05 00:16:21;;;;;;;32.50;17.83;;;4.10;99.90;;;;;;4992649;28;20081;-79
2022/12/05 00:18:47;;;;;;;34.25;19.15;;;4.10;99.90;;;;;;5009760;28;20584;-78
2022/12/05 00:21:24;;;;;;;32.90;18.92;;;4.10;99.90;;;;;;4993621;28;20080;-78
2022/12/05 00:23:52;;;;;;;35.38;19.20;;;4.10;99.90;;;;;;4967003;28;20398;-78
2022/12/05 00:26:18;;;;;;;34.47;18.58;;;4.10;99.90;;;;;;5002296;28;20454;-79
2022/12/05 00:28:44;;;;;;;33.42;18.63;;;5.10;99.90;;;;;;4976594;28;20030;-79
2022/12/05 00:31:12;;;;;;;31.00;18.50;;;4.10;99.90;;;;;;4992672;28;20038;-79
2022/12/05 00:33:39;;;;;;;30.63;18.00;;;4.10;99.90;;;;;;5009319;28;20041;-78
2022/12/05 00:36:13;;;;;;;29.85;17.38;;;5.60;99.90;;;;;;5009544;28;20046;-79
2022/12/05 00:38:40;;;;;;;30.83;18.15;;;4.10;99.90;;;;;;5010960;28;20045;-79
2022/12/05 00:41:11;;;;;;;32.10;17.48;;;4.10;99.90;;;;;;5012301;28;20049;-79
2022/12/05 00:43:37;;;;;;;32.72;17.98;;;4.60;99.90;;;;;;4994741;28;20394;-79
2022/12/05 00:46:05;;;;;;;29.92;16.73;;;4.30;99.90;;;;;;4979833;28;20037;-79
2022/12/05 00:48:31;;;;;;;29.73;16.63;;;4.10;99.90;;;;;;4996857;28;20044;-79
2022/12/05 00:51:08;;;;;;;29.67;17.30;;;4.20;99.90;;;;;;4996832;28;20041;-79
2022/12/05 00:53:34;;;;;;;28.92;16.10;;;4.50;99.90;;;;;;4996364;28;20069;-79
2022/12/05 00:56:05;;;;;;;29.65;17.27;;;4.20;99.90;;;;;;4980370;28;20123;-78
2022/12/05 00:58:32;;;;;;;28.73;17.38;;;4.20;99.90;;;;;;4995852;28;20041;-79
2022/12/05 01:01:08;;;;;;;29.58;15.98;;;4.20;99.90;;;;;;5002970;28;20092;-78
2022/12/05 01:03:34;;;;;;;30.20;17.15;;;4.20;99.90;;;;;;5011580;28;20042;-78
2022/12/05 01:06:00;;;;;;;29.00;16.15;;;4.70;99.90;;;;;;5013281;28;20038;-78
2022/12/05 01:08:26;;;;;;;29.90;16.52;;;4.30;99.90;;;;;;4979482;28;20540;-79
2022/12/05 01:10:53;;;;;;;27.48;15.60;;;4.20;99.90;;;;;;4979846;28;20044;-79
2022/12/05 01:13:19;;;;;;;26.73;15.18;;;5.20;99.90;;;;;;4985584;28;20041;-79
2022/12/05 01:15:45;;;;;;;27.10;15.82;;;4.70;99.90;;;;;;4995822;28;20096;-78
2022/12/05 01:18:10;;;;;;;26.80;15.93;;;4.20;99.90;;;;;;4996488;28;20041;-79
2022/12/05 01:20:39;;;;;;;26.55;15.50;;;4.30;99.90;;;;;;4953841;28;20046;-79
2022/12/05 01:23:04;;;;;;;25.67;15.80;;;4.30;99.90;;;;;;4994909;28;20042;-79
2022/12/05 01:25:30;;;;;;;26.92;15.27;;;4.30;99.90;;;;;;4994735;28;20088;-78
2022/12/05 01:27:56;;;;;;;28.75;15.98;;;4.30;99.90;;;;;;5011120;28;20117;-79
2022/12/05 01:30:22;;;;;;;25.65;15.15;;;4.30;99.90;;;;;;4978845;28;20033;-78
2022/12/05 01:32:47;;;;;;;27.70;15.40;;;4.30;99.90;;;;;;4995305;28;20042;-78
2022/12/05 01:35:13;;;;;;;25.10;16.02;;;4.40;99.90;;;;;;4978595;28;20038;-79
2022/12/05 01:37:39;;;;;;;30.30;17.60;;;4.40;99.90;;;;;;4962957;28;20049;-79
2022/12/05 01:40:06;;;;;;;27.05;15.85;;;4.40;99.90;;;;;;4979430;28;20411;-78
2022/12/05 01:42:31;;;;;;;30.52;17.90;;;4.40;99.90;;;;;;5010296;28;20486;-79
2022/12/05 01:45:07;;;;;;;28.42;16.35;;;4.40;99.90;;;;;;4994929;28;20048;-78
2022/12/05 01:47:35;;;;;;;29.07;17.03;;;4.40;99.90;;;;;;5010302;28;20107;-78
2022/12/05 01:50:02;;;;;;;30.67;17.20;;;4.40;99.90;;;;;;4994447;28;20069;-78
2022/12/05 01:52:30;;;;;;;29.23;17.38;;;4.40;99.90;;;;;;4995022;28;20096;-78
2022/12/05 01:55:01;;;;;;;29.75;18.75;;;5.10;99.90;;;;;;5005374;28;20056;-78
2022/12/05 01:57:27;;;;;;;27.80;16.48;;;4.70;99.90;;;;;;4991855;28;20573;-78
2022/12/05 02:00:02;;;;;;;30.05;17.60;;;4.40;99.90;;;;;;4993802;28;20501;-78
2022/12/05 02:02:30;;;;;;;29.83;18.05;;;5.40;99.90;;;;;;4993890;28;20494;-78
2022/12/05 02:05:18;;;;;;;33.72;19.08;;;5.20;99.90;;;;;;4994338;28;20042;-78
2022/12/05 02:07:46;;;;;;;32.42;18.25;;;6.00;99.90;;;;;;5010671;28;20062;-78
2022/12/05 02:10:12;;;;;;;30.27;18.77;;;4.50;99.90;;;;;;4993272;28;20053;-78
2022/12/05 02:12:39;;;;;;;34.50;20.10;;;4.50;99.90;;;;;;4977652;28;20068;-78
2022/12/05 02:15:29;;;;;;;35.63;19.48;;;5.70;99.90;;;;;;4977506;28;20065;-79
2022/12/05 02:18:15;;;;;;;37.22;18.95;;;4.50;99.90;;;;;;5001471;28;20044;-78
2022/12/05 02:21:07;;;;;;;34.00;18.95;;;5.60;99.90;;;;;;5010062;28;20108;-78
2022/12/05 02:23:49;;;;;;;34.65;18.83;;;4.50;99.90;;;;;;4963379;28;20045;-79
2022/12/05 02:26:27;;;;;;;36.17;19.50;;;4.50;99.90;;;;;;4992059;28;20037;-79
2022/12/05 02:29:20;;;;;;;39.22;20.90;;;4.50;99.90;;;;;;4994266;28;20034;-79
2022/12/05 02:32:04;;;;;;;37.70;20.60;;;5.50;99.90;;;;;;4994048;28;20135;-78
2022/12/05 02:34:36;;;;;;;35.60;19.83;;;4.50;99.90;;;;;;5002324;28;20041;-78
2022/12/05 02:37:22;;;;;;;34.35;19.52;;;4.50;99.90;;;;;;4993531;28;20490;-78
2022/12/05 02:39:57;;;;;;;36.35;19.77;;;4.50;99.90;;;;;;5010271;28;20190;-79
2022/12/05 02:42:33;;;;;;;34.03;19.85;;;4.50;99.90;;;;;;5009614;28;20168;-79
2022/12/05 02:45:06;;;;;;;36.30;20.00;;;4.60;99.90;;;;;;5010360;28;20072;-78
2022/12/05 02:47:43;;;;;;;36.50;20.67;;;4.50;99.90;;;;;;4994024;28;20053;-79
2022/12/05 02:50:12;;;;;;;39.20;21.45;;;5.60;99.90;;;;;;4993886;28;20029;-78
2022/12/05 02:52:38;;;;;;;37.22;19.58;;;4.50;99.90;;;;;;5001595;28;20116;-79
2022/12/05 02:55:07;;;;;;;36.53;20.25;;;4.50;99.90;;;;;;4969638;28;20044;-79
2022/12/05 02:57:35;;;;;;;40.78;20.15;;;4.50;99.90;;;;;;5003158;28;20536;-79
2022/12/05 03:00:00;;;;;;;39.00;21.60;;;4.50;99.90;;;;;;4993470;28;20577;-79
2022/12/05 03:02:33;;;;;;;40.92;20.98;;;4.50;99.90;;;;;;4976952;28;20038;-79
2022/12/05 03:05:32;;;;;;;40.17;21.58;;;5.60;99.90;;;;;;4977017;28;20049;-78
2022/12/05 03:08:02;;;;;;;36.42;20.70;;;4.50;99.90;;;;;;4992887;28;20053;-79
2022/12/05 03:10:30;;;;;;;43.95;21.00;;;6.10;99.90;;;;;;4992734;28;20049;-78
2022/12/05 03:13:02;;;;;;;39.28;20.98;;;4.70;99.90;;;;;;4993342;28;20401;-79
2022/12/05 03:15:33;;;;;;;41.10;20.90;;;4.60;99.90;;;;;;5009692;28;20038;-79
2022/12/05 03:18:07;;;;;;;41.97;21.63;;;4.60;99.90;;;;;;5008499;28;20180;-78
2022/12/05 03:20:56;;;;;;;45.08;22.35;;;4.50;99.90;;;;;;5000741;28;20135;-79
2022/12/05 03:23:27;;;;;;;44.63;20.95;;;4.60;99.90;;;;;;5008794;28;20133;-79
2022/12/05 03:26:11;;;;;;;46.10;22.80;;;4.60;99.90;;;;;;5025559;28;20478;-78
2022/12/05 03:29:12;;;;;;;46.60;22.02;;;4.50;99.90;;;;;;5000652;28;20056;-79
2022/12/05 03:31:44;;;;;;;41.78;22.13;;;4.60;99.90;;;;;;4933738;29;20057;-79
2022/12/05 03:34:17;;;;;;;44.67;22.33;;;4.60;99.90;;;;;;4996631;28;20556;-79
2022/12/05 03:36:47;;;;;;;46.67;21.98;;;4.60;99.90;;;;;;4990788;28;20084;-79
2022/12/05 03:39:29;;;;;;;42.17;21.52;;;5.00;99.90;;;;;;4990264;28;20042;-78
2022/12/05 03:42:15;;;;;;;48.00;23.20;;;4.60;99.90;;;;;;4992460;28;20100;-78
2022/12/05 03:44:43;;;;;;;52.70;23.63;;;4.60;99.90;;;;;;5009428;28;20038;-79
2022/12/05 03:47:16;;;;;;;55.13;24.50;;;4.60;99.90;;;;;;4992202;28;20545;-79
2022/12/05 03:49:55;;;;;;;48.67;25.20;;;5.10;99.90;;;;;;4992387;28;20034;-78
2022/12/05 03:52:41;;;;;;;51.35;25.05;;;4.60;99.90;;;;;;4993249;28;20121;-79
2022/12/05 03:55:08;;;;;;;;;;;4.60;99.90;;;;;;4992628;28;20056;-79
2022/12/05 03:57:43;;;;;;;52.20;24.40;;;4.60;99.90;;;;;;4992096;28;19921;-79
2022/12/05 04:00:19;;;;;;;53.72;23.70;;;5.50;99.90;;;;;;4992252;28;20052;-78
2022/12/05 04:03:09;;;;;;;52.95;23.52;;;4.70;99.90;;;;;;4992097;28;20038;-78
2022/12/05 04:05:43;;;;;;;52.05;24.65;;;4.80;99.90;;;;;;4991989;28;20057;-79
2022/12/05 04:08:37;;;;;;;53.20;25.05;;;4.70;99.90;;;;;;5008754;28;20105;-79
2022/12/05 04:11:16;;;;;;;50.40;23.35;;;4.70;99.90;;;;;;4992846;28;20049;-79
2022/12/05 04:13:54;;;;;;;51.35;24.20;;;4.80;99.90;;;;;;5011837;28;20045;-78
2022/12/05 04:22:22;;;;;;;46.70;23.55;;;4.80;99.90;;;;;;5011777;28;20509;-79
2022/12/05 04:27:42;;;;;;;42.35;21.77;;;4.80;99.90;;;;;;4978039;28;20045;-79
2022/12/05 04:30:12;;;;;;;47.85;22.60;;;4.80;99.90;;;;;;5012740;28;20049;-78
2022/12/05 04:32:45;;;;;;;43.72;22.00;;;4.80;99.90;;;;;;5012602;28;20048;-79
2022/12/05 04:35:26;;;;;;;43.22;21.85;;;4.80;99.90;;;;;;4986466;28;20034;-79
2022/12/05 04:37:59;;;;;;;40.22;21.25;;;4.80;99.90;;;;;;5013012;28;20042;-78
2022/12/05 04:40:40;;;;;;;37.67;21.30;;;4.90;99.90;;;;;;5012755;28;20045;-78
2022/12/05 04:43:08;;;;;;;37.83;20.77;;;5.50;99.90;;;;;;4995919;28;20045;-79
2022/12/05 04:45:36;;;;;;;37.95;20.33;;;4.90;99.90;;;;;;4996142;28;20038;-79
2022/12/05 04:48:07;;;;;;;37.40;19.70;;;6.20;99.90;;;;;;4995125;28;20034;-79
2022/12/05 04:50:34;;;;;;;35.28;18.83;;;4.90;99.90;;;;;;4996059;28;20042;-79
2022/12/05 04:53:01;;;;;;;32.97;19.17;;;4.90;99.90;;;;;;5012738;28;20438;-78
2022/12/05 04:55:31;;;;;;;32.05;18.45;;;5.30;99.90;;;;;;4979188;28;20057;-79
2022/12/05 04:58:14;;;;;;;31.80;17.80;;;4.90;99.90;;;;;;5011422;28;20081;-79
2022/12/05 05:00:54;;;;;;;30.55;16.52;;;4.90;99.90;;;;;;4995217;28;20048;-79
2022/12/05 05:03:28;;;;;;;29.67;15.98;;;5.00;99.90;;;;;;5010353;28;20405;-78
2022/12/05 05:05:56;;;;;;;26.73;16.63;;;4.90;99.90;;;;;;4995014;28;20088;-79
2022/12/05 05:08:26;;;;;;;25.58;16.10;;;5.50;99.90;;;;;;5003574;28;20058;-78
2022/12/05 05:11:15;;;;;;;27.75;15.65;;;5.10;99.90;;;;;;5012041;28;20030;-78
2022/12/05 05:13:40;;;;;;;25.08;15.20;;;5.00;99.90;;;;;;5011885;28;20045;-78
2022/12/05 05:16:06;;;;;;;23.08;14.25;;;5.20;99.90;;;;;;4954683;28;20045;-79
2022/12/05 05:18:32;;;;;;;23.95;14.90;;;5.00;99.90;;;;;;4994654;28;20041;-79
2022/12/05 05:20:58;;;;;;;23.48;13.75;;;5.00;99.90;;;;;;4979146;28;20064;-79
2022/12/05 05:23:24;;;;;;;22.80;14.07;;;5.50;99.90;;;;;;4954554;28;20046;-79
2022/12/05 05:25:54;;;;;;;23.77;14.77;;;5.00;99.90;;;;;;4969355;28;20045;-79
2022/12/05 05:28:21;;;;;;;27.10;14.77;;;5.00;99.90;;;;;;4994573;28;20029;-79
2022/12/05 05:30:47;;;;;;;23.77;14.50;;;5.00;99.90;;;;;;5011053;28;20048;-79
2022/12/05 05:33:13;;;;;;;21.60;13.98;;;5.00;99.90;;;;;;4994274;28;20038;-79
2022/12/05 05:35:39;;;;;;;20.60;13.65;;;5.30;99.90;;;;;;5011323;28;20445;-79
2022/12/05 05:38:05;;;;;;;20.30;13.10;;;5.30;99.90;;;;;;4978301;28;20046;-79
2022/12/05 05:40:33;;;;;;;21.17;12.82;;;5.00;99.90;;;;;;4978542;28;20536;-78
2022/12/05 05:42:59;;;;;;;19.75;12.60;;;5.00;99.90;;;;;;4995825;28;20049;-79
2022/12/05 05:45:24;;;;;;;21.42;13.57;;;5.00;99.90;;;;;;4995235;28;20382;-79
2022/12/05 05:47:50;;;;;;;19.30;12.88;;;5.90;99.90;;;;;;5012453;28;20117;-79
2022/12/05 05:50:16;;;;;;;18.77;13.25;;;5.10;99.90;;;;;;4956883;28;20034;-78
2022/12/05 05:52:41;;;;;;;19.98;13.52;;;5.10;99.90;;;;;;4996633;28;20037;-78
2022/12/05 05:55:08;;;;;;;16.75;12.02;;;5.10;99.90;;;;;;4955977;28;20441;-78
2022/12/05 05:57:35;;;;;;;16.48;11.73;;;5.10;99.90;;;;;;5010271;28;20112;-79
2022/12/05 06:00:03;;;;;;;17.60;11.43;;;6.20;99.90;;;;;;4995373;28;20076;-79
2022/12/05 06:02:33;;;;;;;16.45;11.05;;;5.10;99.90;;;;;;4995762;28;20045;-79
2022/12/05 06:04:59;;;;;;;16.13;9.90;;;5.10;99.90;;;;;;4994824;28;20050;-80
2022/12/05 06:07:25;;;;;;;14.38;9.70;;;5.20;99.90;;;;;;5013589;28;20048;-79
2022/12/05 06:09:50;;;;;;;12.85;9.02;;;5.50;99.90;;;;;;4982127;28;20053;-80
2022/12/05 06:12:16;;;;;;;11.48;8.85;;;5.20;99.90;;;;;;4966210;28;20049;-78
2022/12/05 06:14:42;;;;;;;11.90;8.35;;;5.20;99.90;;;;;;4980628;28;20042;-80
2022/12/05 06:17:07;;;;;;;9.93;7.90;;;5.30;99.90;;;;;;5014014;28;20034;-78
2022/12/05 06:19:33;;;;;;;9.20;7.55;;;5.20;99.90;;;;;;4973064;28;20524;-79
2022/12/05 06:21:59;;;;;;;10.30;6.93;;;6.20;99.90;;;;;;5013325;28;20428;-81
2022/12/05 06:24:25;;;;;;;9.85;7.20;;;5.20;99.90;;;;;;4997636;28;20505;-81
2022/12/05 06:26:50;;;;;;;10.38;6.88;;;5.20;99.90;;;;;;4979956;28;20124;-80
2022/12/05 06:29:16;;;;;;;8.98;6.40;;;6.70;99.90;;;;;;4979949;28;20033;-77
2022/12/05 06:31:42;;;;;;;8.75;6.88;;;5.30;99.90;;;;;;4997738;28;20051;-78
2022/12/05 06:34:07;;;;;;;8.35;6.47;;;5.90;99.90;;;;;;4997612;28;20045;-78
2022/12/05 06:36:33;;;;;;;7.47;6.22;;;5.30;99.90;;;;;;4998563;28;20057;-78
2022/12/05 06:38:59;;;;;;;8.52;6.60;;;5.50;99.90;;;;;;4965913;28;20103;-78
2022/12/05 06:41:26;;;;;;;8.43;6.45;;;6.00;99.90;;;;;;4998220;28;20067;-78
2022/12/05 06:43:57;;;;;;;8.75;6.25;;;5.30;99.90;;;;;;4997383;28;20052;-79
2022/12/05 06:46:24;;;;;;;8.75;6.82;;;5.20;99.90;;;;;;5014298;28;20095;-78
2022/12/05 06:48:57;;;;;;;9.18;6.95;;;5.30;99.90;;;;;;5004918;28;20041;-78
2022/12/05 06:51:23;;;;;;;9.10;8.02;;;5.30;99.90;;;;;;4981390;28;20532;-78
2022/12/05 06:53:49;;;;;;;8.93;7.22;;;5.30;99.90;;;;;;5013454;28;20551;-78
2022/12/05 06:56:18;;;;;;;11.27;7.45;;;5.30;99.90;;;;;;4974377;28;20041;-79
2022/12/05 06:58:46;;;;;;;12.48;7.55;;;5.30;99.90;;;;;;5012000;28;20045;-78
2022/12/05 07:03:59;;;;;;;10.15;6.78;;;5.30;99.90;;;;;;4998886;28;20060;-78
2022/12/05 07:06:27;;;;;;;9.60;7.63;;;5.30;99.90;;;;;;4979624;28;20099;-78
2022/12/05 07:08:53;;;;;;;10.15;7.00;;;5.60;99.90;;;;;;4988579;28;20049;-79
2022/12/05 07:11:19;;;;;;;10.68;7.30;;;5.30;99.90;;;;;;4981048;28;20052;-80
2022/12/05 07:13:45;;;;;;;9.93;6.82;;;5.30;99.90;;;;;;4996239;28;20049;-78
2022/12/05 07:16:10;;;;;;;8.18;6.25;;;5.30;99.90;;;;;;4996718;28;20037;-78
2022/12/05 07:18:36;;;;;;;8.30;6.30;;;5.30;99.90;;;;;;4981975;28;20047;-79
2022/12/05 07:21:07;;;;;;;9.05;6.88;;;5.30;99.90;;;;;;4996578;28;20488;-78
2022/12/05 07:23:33;;;;;;;11.10;6.60;;;5.30;99.90;;;;;;4988715;28;20051;-77
2022/12/05 07:26:07;;;;;;;10.40;7.30;;;5.30;99.90;;;;;;5012180;28;20072;-78
2022/12/05 07:28:33;;;;;;;9.45;6.22;;;5.40;99.90;;;;;;5013374;28;20048;-79
2022/12/05 07:31:04;;;;;;;8.43;6.15;;;5.40;99.90;;;;;;5013087;28;20041;-78
2022/12/05 07:33:30;;;;;;;6.20;5.28;;;5.40;99.90;;;;;;5013360;28;20100;-78
2022/12/05 07:36:05;;;;;;;6.63;5.18;;;5.50;99.90;;;;;;4997037;28;20485;-78
2022/12/05 07:38:30;;;;;;;6.15;4.90;;;5.40;99.90;;;;;;4996547;28;20045;-78
2022/12/05 07:40:56;;;;;;;6.10;4.65;;;6.60;99.90;;;;;;4996750;28;20049;-78
2022/12/05 07:43:23;;;;;;;6.97;5.25;;;5.30;99.90;;;;;;4996788;28;20034;-78
2022/12/05 07:45:49;;;;;;;9.73;5.30;;;5.30;99.90;;;;;;4997299;28;20111;-78
2022/12/05 07:48:15;;;;;;;6.95;5.00;;;6.10;99.90;;;;;;4999449;28;20156;-78
2022/12/05 07:50:41;;;;;;;7.43;5.30;;;5.30;99.90;;;;;;5016732;28;20067;-78
2022/12/05 07:53:07;;;;;;;6.47;4.88;;;5.80;99.90;;;;;;5000432;28;20045;-78
2022/12/05 07:55:32;;;;;;;6.05;5.15;;;5.40;99.90;;;;;;4984428;28;20072;-78
2022/12/05 07:57:58;;;;;;;6.43;5.07;;;5.30;99.90;;;;;;4968785;28;20473;-78
2022/12/05 08:00:26;;;;;;;6.60;5.28;;;5.70;99.90;;;;;;4981365;28;20108;-79
2022/12/05 08:02:52;;;;;;;5.90;4.68;;;5.30;99.90;;;;;;4997709;28;20056;-78
2022/12/05 08:05:18;;;;;;;7.40;5.22;;;5.30;99.90;;;;;;4967928;28;20115;-78
2022/12/05 08:07:43;;;;;;;8.27;6.07;;;5.30;99.90;;;;;;5000239;28;20087;-79
2022/12/05 08:10:09;;;;;;;7.75;5.63;;;6.20;99.90;;;;;;4980263;28;20068;-78
2022/12/05 08:12:36;;;;;;;6.80;5.18;;;5.40;99.90;;;;;;4971042;28;20497;-78
2022/12/05 08:15:02;;;;;;;6.47;5.25;;;5.40;99.90;;;;;;4972704;28;20048;-79
2022/12/05 08:17:29;;;;;;;7.05;5.25;;;5.40;99.90;;;;;;4995370;28;20049;-79
2022/12/05 08:19:55;;;;;;;7.85;5.85;;;5.40;99.90;;;;;;4995954;28;20040;-79
2022/12/05 08:22:21;;;;;;;11.82;7.80;;;5.40;99.90;;;;;;5011414;28;20058;-79
2022/12/05 08:24:49;;;;;;;17.13;9.18;;;6.20;99.90;;;;;;4996249;28;20034;-79
2022/12/05 08:27:15;;;;;;;11.30;7.03;;;5.50;99.90;;;;;;4980530;28;20455;-79
2022/12/05 08:29:40;;;;;;;11.82;6.85;;;5.50;99.90;;;;;;4994576;28;20042;-79
2022/12/05 08:32:06;;;;;;;8.57;6.10;;;5.50;99.90;;;;;;4996367;28;20084;-78
2022/12/05 08:34:32;;;;;;;9.80;6.53;;;5.50;99.90;;;;;;4973187;28;20046;-78
2022/12/05 08:36:57;;;;;;;8.57;6.93;;;5.50;99.90;;;;;;4995795;28;20044;-78
2022/12/05 08:39:23;;;;;;;9.00;6.22;;;5.50;99.90;;;;;;4980238;28;20041;-78
2022/12/05 08:41:50;;;;;;;9.10;6.38;;;5.50;99.90;;;;;;5012139;28;20055;-79
2022/12/05 08:44:17;;;;;;;11.25;6.50;;;5.50;99.90;;;;;;4979760;28;20046;-79
2022/12/05 08:46:45;;;;;;;10.00;6.43;;;5.60;99.90;;;;;;4992071;28;20046;-78
2022/12/05 08:49:11;;;;;;;9.45;6.63;;;5.50;99.90;;;;;;4995815;28;20030;-78
2022/12/05 08:51:37;;;;;;;11.52;7.05;;;5.50;99.90;;;;;;5012428;28;20045;-79
2022/12/05 08:54:04;;;;;;;11.07;6.97;;;5.60;99.90;;;;;;4980270;28;20053;-78
2022/12/05 08:56:31;;;;;;;10.57;6.30;;;5.50;99.90;;;;;;4987818;28;20057;-78
2022/12/05 08:58:58;;;;;;;12.05;7.80;;;5.50;99.90;;;;;;4970241;28;20042;-78
2022/12/05 09:01:29;;;;;;;10.90;7.82;;;5.50;99.90;;;;;;4980424;28;20128;-79
2022/12/05 09:03:55;;;;;;;9.95;7.28;;;5.50;99.90;;;;;;4995792;28;20042;-79
2022/12/05 09:06:23;;;;;;;12.77;7.15;;;5.50;99.90;;;;;;5011358;28;20092;-79
2022/12/05 09:08:54;;;;;;;13.30;7.70;;;5.50;99.90;;;;;;4994000;28;20093;-79
2022/12/05 09:11:22;;;;;;;11.25;6.95;;;6.30;99.90;;;;;;5012247;28;20050;-79
2022/12/05 09:13:49;;;;;;;10.82;6.25;;;5.50;99.90;;;;;;4994155;28;20050;-79
2022/12/05 09:16:20;;;;;;;11.05;6.55;;;5.60;99.90;;;;;;4995572;28;20104;-79
2022/12/05 09:18:47;;;;;;;12.30;7.57;;;5.50;99.90;;;;;;4984964;28;20052;-78
2022/12/05 09:21:15;;;;;;;13.48;7.72;;;6.20;99.90;;;;;;4978673;28;20042;-78
2022/12/05 09:23:42;;;;;;;14.93;7.75;;;5.60;99.90;;;;;;5009040;28;20100;-79
2022/12/05 09:26:10;;;;;;;15.00;7.95;;;5.60;99.90;;;;;;4995084;28;20091;-78
2022/12/05 09:28:37;;;;;;;11.60;7.38;;;6.20;99.90;;;;;;5012278;28;20119;-80
2022/12/05 09:31:05;;;;;;;15.05;7.65;;;5.60;99.90;;;;;;4995335;28;20033;-78
2022/12/05 09:33:33;;;;;;;10.55;7.38;;;5.60;99.90;;;;;;5010433;28;20521;-78
2022/12/05 09:36:02;;;;;;;11.68;6.70;;;5.70;99.90;;;;;;4993603;28;20501;-78
2022/12/05 09:38:28;;;;;;;14.73;7.53;;;5.70;99.90;;;;;;5010611;28;20053;-78
2022/12/05 09:42:03;;;;;;;14.00;7.07;;;5.60;99.90;;;;;;4993210;28;20038;-78
2022/12/05 09:44:40;;;;;;;12.25;7.30;;;5.60;99.90;;;;;;5008746;28;20437;-78
2022/12/05 09:47:35;;;;;;;12.90;7.32;;;5.60;99.90;;;;;;4992628;28;20045;-78
2022/12/05 09:50:18;;;;;;;13.30;6.47;;;5.60;99.90;;;;;;5006953;28;20060;-78
2022/12/05 09:53:02;;;;;;;12.48;7.47;;;5.60;99.90;;;;;;4994798;28;20502;-78
2022/12/05 09:55:40;;;;;;;15.13;7.57;;;5.60;99.90;;;;;;4993254;28;20084;-78
2022/12/05 09:58:40;;;;;;;13.50;6.78;;;5.60;99.90;;;;;;4993332;28;20037;-78
2022/12/05 10:01:40;;;;;;;13.15;7.07;;;5.60;99.90;;;;;;5004780;28;20501;-78
2022/12/05 10:04:45;;;;;;;12.65;6.57;;;5.60;99.90;;;;;;4986133;28;20556;-78
2022/12/05 10:07:26;;;;;;;13.90;7.28;;;5.60;99.90;;;;;;5010302;28;20125;-79
2022/12/05 10:09:54;;;;;;;12.88;6.70;;;5.60;99.90;;;;;;4992529;28;20138;-79
2022/12/05 10:12:39;;;;;;;11.73;7.47;;;5.70;99.90;;;;;;4993280;28;20046;-78
2022/12/05 10:15:15;;;;;;;11.35;7.47;;;6.30;99.90;;;;;;5009274;28;20045;-78
2022/12/05 10:17:48;;;;;;;11.80;7.78;;;5.60;99.90;;;;;;5009065;28;20130;-79
2022/12/05 10:20:34;;;;;;;9.07;6.18;;;5.60;99.90;;;;;;4992978;28;20604;-77
2022/12/05 10:23:17;;;;;;;11.98;7.53;;;5.60;99.90;;;;;;5009518;28;20111;-78
2022/12/05 10:25:43;;;;;;;12.73;7.82;;;5.80;99.90;;;;;;5009963;28;20137;-78
2022/12/05 10:28:26;;;;;;;12.48;7.55;;;5.60;99.90;;;;;;4970182;28;20060;-77
2022/12/05 10:30:57;;;;;;;14.00;7.75;;;5.60;99.90;;;;;;5008938;28;20445;-78
2022/12/05 10:33:27;;;;;;;11.13;7.10;;;5.50;99.90;;;;;;5010391;28;20053;-78
2022/12/05 10:35:53;;;;;;;12.00;6.18;;;6.40;99.90;;;;;;5009553;28;20042;-77
2022/12/05 10:38:29;;;;;;;11.23;7.22;;;5.50;99.90;;;;;;4993512;28;20096;-77
2022/12/05 10:40:59;;;;;;;13.85;7.53;;;5.60;99.90;;;;;;5009076;28;20485;-78
2022/12/05 10:43:30;;;;;;;10.75;7.03;;;5.50;99.90;;;;;;5009718;28;20054;-78
2022/12/05 10:45:57;;;;;;;11.70;7.60;;;5.50;99.90;;;;;;4993131;28;20034;-78
2022/12/05 10:48:23;;;;;;;10.90;7.35;;;5.50;99.90;;;;;;4993186;28;20030;-77
2022/12/05 10:50:52;;;;;;;12.20;7.03;;;6.00;99.90;;;;;;4992085;28;20093;-78
2022/12/05 10:53:38;;;;;;;13.65;8.85;;;5.50;99.90;;;;;;5009594;28;20042;-78
2022/12/05 10:56:40;;;;;;;13.30;8.68;;;5.50;99.90;;;;;;5009838;28;20041;-78
2022/12/05 10:59:23;;;;;;;12.57;6.88;;;5.30;99.90;;;;;;5009925;28;20410;-78
2022/12/05 11:01:56;;;;;;;13.90;7.53;;;5.50;99.90;;;;;;5008113;28;20037;-78
2022/12/05 11:04:42;;;;;;;11.98;7.10;;;5.50;99.90;;;;;;5016950;28;20046;-77
2022/12/05 11:07:31;;;;;;;14.65;8.20;;;6.00;99.90;;;;;;4992289;28;20049;-78
2022/12/05 11:10:01;;;;;;;12.15;7.53;;;5.50;99.90;;;;;;5007992;28;20092;-78
2022/12/05 11:12:34;;;;;;;12.48;8.10;;;5.50;99.90;;;;;;4991540;28;20520;-78
2022/12/05 11:15:03;;;;;;;13.68;8.00;;;5.50;99.90;;;;;;4991594;28;20049;-78
2022/12/05 11:17:35;;;;;;;12.00;7.43;;;5.50;99.90;;;;;;4992014;28;20050;-78
2022/12/05 11:20:21;;;;;;;14.38;7.07;;;5.50;99.90;;;;;;4992185;28;20050;-78
2022/12/05 11:22:49;;;;;;;12.95;7.53;;;5.50;99.90;;;;;;4989897;28;20100;-78
2022/12/05 11:25:24;;;;;;;14.18;7.45;;;5.50;99.90;;;;;;5007175;28;20030;-77
2022/12/05 11:27:49;;;;;;;11.70;7.10;;;5.40;99.90;;;;;;5007603;28;20145;-78
2022/12/05 11:30:21;;;;;;;15.10;7.60;;;5.50;99.90;;;;;;4991036;28;20034;-77
2022/12/05 11:32:48;;;;;;;10.57;7.07;;;5.50;99.90;;;;;;4992395;28;20502;-78
2022/12/05 11:35:27;;;;;;;12.15;7.00;;;5.50;99.90;;;;;;4976757;28;20084;-79
2022/12/05 11:38:04;;;;;;;9.07;6.28;;;5.50;99.90;;;;;;5008387;28;20046;-80
2022/12/05 11:40:37;;;;;;;12.10;6.68;;;5.50;99.90;;;;;;5027105;28;20041;-77
2022/12/05 11:43:12;;;;;;;10.30;6.38;;;5.50;99.90;;;;;;5001357;28;20045;-78
2022/12/05 11:45:59;;;;;;;12.57;6.97;;;5.50;99.90;;;;;;4995159;28;20482;-78
2022/12/05 11:48:37;;;;;;;11.32;6.78;;;5.50;99.90;;;;;;5009696;28;20041;-77
2022/12/05 11:51:28;;;;;;;11.93;6.30;;;5.50;99.90;;;;;;5000206;28;20046;-78
2022/12/05 11:54:13;;;;;;;10.45;6.60;;;5.50;99.90;;;;;;4969274;28;20102;-78
2022/12/05 11:56:59;;;;;;;8.75;6.20;;;5.50;99.90;;;;;;4969513;28;20055;-77
2022/12/05 11:59:40;;;;;;;10.95;6.60;;;5.50;99.90;;;;;;4982699;28;20051;-78
2022/12/05 12:02:26;;;;;;;12.15;6.70;;;5.50;99.90;;;;;;4969594;28;20498;-78
2022/12/05 12:05:29;;;;;;;11.30;6.68;;;6.90;99.90;;;;;;4969264;28;20874;-78
2022/12/05 12:08:14;;;;;;;12.05;6.78;;;5.50;99.90;;;;;;4983543;28;20042;-77
2022/12/05 12:10:49;;;;;;;8.40;6.25;;;5.40;99.90;;;;;;4988966;28;20042;-77
2022/12/05 12:13:40;;;;;;;13.63;6.43;;;5.40;99.90;;;;;;4963505;28;20054;-77
2022/12/05 12:16:32;;;;;;;13.25;7.30;;;5.40;99.90;;;;;;4968090;28;20038;-77
2022/12/05 12:19:17;;;;;;;12.55;6.78;;;5.40;99.90;;;;;;4961336;28;20046;-77
2022/12/05 12:22:01;;;;;;;11.88;7.13;;;5.40;99.90;;;;;;5004940;28;20047;-77
2022/12/05 12:24:57;;;;;;;11.20;6.85;;;5.40;99.90;;;;;;4973604;28;20050;-77
2022/12/05 12:27:44;;;;;;;11.73;6.50;;;5.40;99.90;;;;;;4960806;28;20116;-77
2022/12/05 12:30:36;;;;;;;13.82;6.68;;;5.40;99.90;;;;;;4965326;28;20398;-77
2022/12/05 12:33:15;;;;;;;13.75;7.82;;;5.40;99.90;;;;;;4974992;28;20077;-77
2022/12/05 12:35:52;;;;;;;12.65;7.38;;;6.10;99.90;;;;;;4984990;28;20070;-78
2022/12/05 12:38:50;;;;;;;11.90;6.47;;;5.40;99.90;;;;;;4985379;28;20568;-77
2022/12/05 12:41:49;;;;;;;9.48;5.93;;;5.40;99.90;;;;;;4993680;28;20525;-78
2022/12/05 12:44:27;;;;;;;10.00;6.43;;;5.40;99.90;;;;;;4993043;28;20044;-78
2022/12/05 12:47:00;;;;;;;9.63;6.20;;;5.40;99.90;;;;;;4969092;28;20136;-77
2022/12/05 12:49:45;;;;;;;11.10;6.40;;;5.50;99.90;;;;;;4977546;28;20040;-78
2022/12/05 12:52:17;;;;;;;11.60;6.07;;;5.40;99.90;;;;;;4967236;28;20044;-77
2022/12/05 12:54:42;;;;;;;10.55;6.70;;;5.50;99.90;;;;;;4976593;28;20038;-78
2022/12/05 12:57:31;;;;;;;15.82;6.80;;;5.80;99.90;;;;;;5000790;28;20079;-77
2022/12/05 13:00:08;;;;;;;11.48;5.63;;;5.50;99.90;;;;;;4994317;28;20644;-77
2022/12/05 13:02:45;;;;;;;13.70;8.00;;;5.50;99.90;;;;;;4968906;28;20058;-78
2022/12/05 13:05:31;;;;;;;10.73;6.13;;;5.50;99.90;;;;;;4977497;28;20038;-78
2022/12/05 13:08:03;;;;;;;10.38;5.85;;;6.20;99.90;;;;;;4993006;28;20487;-79
2022/12/05 13:10:44;;;;;;;10.00;5.93;;;5.50;99.90;;;;;;4986856;28;20055;-78
2022/12/05 13:13:21;;;;;;;10.93;5.55;;;5.50;99.90;;;;;;4992210;28;20134;-78
2022/12/05 13:15:51;;;;;;;8.48;5.70;;;5.50;99.90;;;;;;4975352;28;20077;-78
2022/12/05 13:18:21;;;;;;;9.85;5.30;;;5.80;99.90;;;;;;4991617;28;20034;-77
2022/12/05 13:20:57;;;;;;;7.38;5.50;;;6.20;99.90;;;;;;5006630;28;20498;-80
2022/12/05 13:23:26;;;;;;;9.57;5.35;;;5.50;99.90;;;;;;4991563;28;20097;-78
2022/12/05 13:25:55;;;;;;;8.82;5.30;;;5.60;99.90;;;;;;4976306;28;20394;-77